createdAt,value
2017-11-16T00:00:39.613Z,101532.74
2017-11-16T00:01:42.072Z,101535.58
2017-11-16T00:02:44.540Z,101528.37
2017-11-16T00:03:47.000Z,101528.17
2017-11-16T00:04:49.491Z,101532.32
2017-11-16T00:05:51.950Z,101530.72
2017-11-16T00:06:54.399Z,101525.78
2017-11-16T00:07:56.856Z,101527.98
2017-11-16T00:08:59.346Z,101527.47
2017-11-16T00:10:01.854Z,101533.81
2017-11-16T00:11:04.323Z,101528.17
2017-11-16T00:12:06.780Z,101528.58
2017-11-16T00:13:09.242Z,101525.86
2017-11-16T00:14:11.702Z,101524.08
2017-11-16T00:15:14.184Z,101525.56
2017-11-16T00:16:16.682Z,101524.98
2017-11-16T00:17:19.167Z,101522.48
2017-11-16T00:18:21.621Z,101529.37
2017-11-16T00:19:24.106Z,101521.83
2017-11-16T00:20:26.609Z,101522.17
2017-11-16T00:21:29.095Z,101519.33
2017-11-16T00:22:31.578Z,101521.43
2017-11-16T00:23:34.039Z,101520.66
2017-11-16T00:24:36.516Z,101521.13
2017-11-16T00:25:39.029Z,101520.47
2017-11-16T00:26:41.498Z,101524.08
2017-11-16T00:27:43.993Z,101518.27
2017-11-16T00:28:46.474Z,101519.94
2017-11-16T00:29:48.945Z,101518.06
2017-11-16T00:30:51.438Z,101520.99
2017-11-16T00:31:53.896Z,101521.22
2017-11-16T00:32:56.363Z,101516.55
2017-11-16T00:33:58.854Z,101517.37
2017-11-16T00:35:01.331Z,101516.14
2017-11-16T00:36:03.812Z,101516.34
2017-11-16T00:37:06.286Z,101517.37
2017-11-16T00:38:08.744Z,101516.05
2017-11-16T00:39:11.199Z,101515.05
2017-11-16T00:40:13.659Z,101511.55
2017-11-16T00:41:16.154Z,101510.54
2017-11-16T00:42:18.615Z,101510.50
2017-11-16T00:43:21.073Z,101508.19
2017-11-16T00:44:23.550Z,101506.82
2017-11-16T00:45:26.010Z,101507.27
2017-11-16T00:46:28.500Z,101510.12
2017-11-16T00:47:30.973Z,101504.06
2017-11-16T00:48:33.443Z,101501.21
2017-11-16T00:49:35.903Z,101503.54
2017-11-16T00:50:38.378Z,101505.97
2017-11-16T00:51:40.860Z,101505.45
2017-11-16T00:52:43.339Z,101511.55
2017-11-16T00:53:45.809Z,101505.57
2017-11-16T00:54:48.273Z,101509.55
2017-11-16T00:55:50.736Z,101510.94
2017-11-16T00:56:53.224Z,101508.80
2017-11-16T00:57:55.696Z,101507.85
2017-11-16T00:58:58.177Z,101507.96
2017-11-16T01:00:00.659Z,101507.23
2017-11-16T01:01:03.139Z,101506.69
2017-11-16T01:02:05.624Z,101506.72
2017-11-16T01:03:08.087Z,101512.02
2017-11-16T01:04:10.555Z,101504.30
2017-11-16T01:05:13.034Z,101500.45
2017-11-16T01:06:15.529Z,101497.63
2017-11-16T01:07:18.046Z,101493.23
2017-11-16T01:08:20.512Z,101492.33
2017-11-16T01:09:22.989Z,101488.63
2017-11-16T01:10:25.448Z,101489.69
2017-11-16T01:11:27.916Z,101497.48
2017-11-16T01:12:30.417Z,101489.33
2017-11-16T01:13:32.896Z,101501.29
2017-11-16T01:14:35.378Z,101497.48
2017-11-16T01:15:37.850Z,101493.89
2017-11-16T01:16:40.327Z,101490.70
2017-11-16T01:17:42.816Z,101494.08
2017-11-16T01:18:45.276Z,101489.69
2017-11-16T01:19:47.759Z,101492.01
2017-11-16T01:20:50.240Z,101489.07
2017-11-16T01:21:52.708Z,101493.53
2017-11-16T01:22:55.254Z,101488.82
2017-11-16T01:23:57.729Z,101494.41
2017-11-16T01:25:00.211Z,101487.48
2017-11-16T01:26:02.699Z,101492.41
2017-11-16T01:27:05.160Z,101495.42
2017-11-16T01:28:07.656Z,101490.52
2017-11-16T01:29:10.115Z,101492.52
2017-11-16T01:30:12.617Z,101484.75
2017-11-16T01:31:15.094Z,101487.26
2017-11-16T01:32:17.576Z,101486.06
2017-11-16T01:33:20.068Z,101486.17
2017-11-16T01:34:22.534Z,101485.41
2017-11-16T01:35:24.997Z,101485.77
2017-11-16T01:36:27.466Z,101481.42
2017-11-16T01:37:29.963Z,101485.30
2017-11-16T01:38:32.463Z,101485.05
2017-11-16T01:39:34.943Z,101486.75
2017-11-16T01:40:37.431Z,101483.78
2017-11-16T01:41:39.911Z,101484.06
2017-11-16T01:42:42.374Z,101481.31
2017-11-16T01:43:44.884Z,101481.09
2017-11-16T01:44:47.347Z,101478.41
2017-11-16T01:45:49.822Z,101473.95
2017-11-16T01:46:52.296Z,101467.00
2017-11-16T01:47:54.774Z,101474.45
2017-11-16T01:48:57.251Z,101471.08
2017-11-16T01:50:00.504Z,101472.09
2017-11-16T01:51:02.966Z,101471.48
2017-11-16T01:52:05.445Z,101472.42
2017-11-16T01:53:07.944Z,101470.86
2017-11-16T01:54:10.436Z,101474.63
2017-11-16T01:55:12.904Z,101477.16
2017-11-16T01:56:15.364Z,101474.55
2017-11-16T01:57:17.850Z,101472.02
2017-11-16T01:58:20.329Z,101471.30
2017-11-16T01:59:22.812Z,101471.65
2017-11-16T02:00:25.271Z,101468.06
2017-11-16T02:01:27.751Z,101471.88
2017-11-16T02:02:40.984Z,101466.69
2017-11-16T02:03:43.470Z,101466.83
2017-11-16T02:04:45.941Z,101466.50
2017-11-16T02:05:48.420Z,101466.83
2017-11-16T02:06:50.903Z,101473.63
2017-11-16T02:07:53.368Z,101465.22
2017-11-16T02:08:55.831Z,101473.73
2017-11-16T02:09:58.680Z,101474.19
2017-11-16T02:11:01.140Z,101466.58
2017-11-16T02:12:03.617Z,101471.17
2017-11-16T02:13:06.154Z,101473.89
2017-11-16T02:14:08.622Z,101471.36
2017-11-16T02:15:11.089Z,101467.95
2017-11-16T02:16:13.567Z,101470.48
2017-11-16T02:17:16.029Z,101473.06
2017-11-16T02:18:18.491Z,101469.45
2017-11-16T02:19:20.967Z,101475.89
2017-11-16T02:20:23.441Z,101475.23
2017-11-16T02:21:25.913Z,101478.67
2017-11-16T02:22:28.402Z,101475.26
2017-11-16T02:23:30.870Z,101476.61
2017-11-16T02:24:33.336Z,101469.58
2017-11-16T02:25:35.814Z,101475.72
2017-11-16T02:26:38.294Z,101470.17
2017-11-16T02:27:40.779Z,101472.69
2017-11-16T02:28:43.281Z,101474.31
2017-11-16T02:29:45.747Z,101472.77
2017-11-16T02:30:48.222Z,101479.30
2017-11-16T02:31:50.705Z,101477.19
2017-11-16T02:32:53.181Z,101477.64
2017-11-16T02:33:55.660Z,101476.16
2017-11-16T02:34:58.136Z,101474.48
2017-11-16T02:36:00.597Z,101476.71
2017-11-16T02:37:03.073Z,101478.23
2017-11-16T02:38:05.544Z,101478.23
2017-11-16T02:39:08.012Z,101467.00
2017-11-16T02:40:10.482Z,101475.26
2017-11-16T02:41:12.981Z,101474.07
2017-11-16T02:42:15.444Z,101473.35
2017-11-16T02:43:17.914Z,101465.09
2017-11-16T02:44:20.419Z,101470.86
2017-11-16T02:45:22.879Z,101472.23
2017-11-16T02:46:25.376Z,101475.22
2017-11-16T02:47:27.848Z,101466.58
2017-11-16T02:48:30.354Z,101469.55
2017-11-16T02:49:32.848Z,101463.25
2017-11-16T02:50:35.337Z,101460.49
2017-11-16T02:51:37.813Z,101464.81
2017-11-16T02:52:40.302Z,101468.27
2017-11-16T02:53:42.791Z,101467.40
2017-11-16T02:54:45.275Z,101465.30
2017-11-16T02:55:47.764Z,101460.61
2017-11-16T02:56:50.241Z,101464.91
2017-11-16T02:57:52.724Z,101464.39
2017-11-16T02:58:55.203Z,101457.04
2017-11-16T02:59:57.691Z,101461.41
2017-11-16T03:01:00.169Z,101464.57
2017-11-16T03:02:02.631Z,101468.42
2017-11-16T03:03:05.114Z,101457.48
2017-11-16T03:04:07.577Z,101458.50
2017-11-16T03:05:10.062Z,101459.55
2017-11-16T03:06:12.545Z,101461.69
2017-11-16T03:07:15.034Z,101460.50
2017-11-16T03:08:17.502Z,101460.26
2017-11-16T03:09:19.982Z,101459.11
2017-11-16T03:10:22.449Z,101455.89
2017-11-16T03:11:24.946Z,101456.22
2017-11-16T03:12:27.408Z,101460.16
2017-11-16T03:13:29.868Z,101462.41
2017-11-16T03:14:32.346Z,101468.83
2017-11-16T03:15:34.813Z,101470.81
2017-11-16T03:16:37.292Z,101467.70
2017-11-16T03:17:39.770Z,101472.88
2017-11-16T03:18:42.232Z,101468.98
2017-11-16T03:19:44.715Z,101474.23
2017-11-16T03:20:47.188Z,101473.62
2017-11-16T03:21:49.660Z,101471.78
2017-11-16T03:22:52.120Z,101473.16
2017-11-16T03:23:54.606Z,101469.85
2017-11-16T03:24:57.085Z,101472.16
2017-11-16T03:25:59.570Z,101472.34
2017-11-16T03:27:02.043Z,101469.25
2017-11-16T03:28:04.505Z,101471.11
2017-11-16T03:29:06.968Z,101472.55
2017-11-16T03:30:09.436Z,101458.31
2017-11-16T03:31:11.923Z,101467.80
2017-11-16T03:32:14.389Z,101470.56
2017-11-16T03:33:16.868Z,101465.42
2017-11-16T03:34:19.334Z,101470.17
2017-11-16T03:35:21.858Z,101470.87
2017-11-16T03:36:24.367Z,101471.80
2017-11-16T03:37:26.844Z,101465.09
2017-11-16T03:38:29.322Z,101472.08
2017-11-16T03:39:31.799Z,101467.83
2017-11-16T03:40:34.619Z,101473.29
2017-11-16T03:41:37.094Z,101471.56
2017-11-16T03:42:39.561Z,101467.69
2017-11-16T03:43:42.026Z,101472.88
2017-11-16T03:44:44.512Z,101472.88
2017-11-16T03:45:46.982Z,101474.67
2017-11-16T03:46:49.475Z,101471.11
2017-11-16T03:47:51.983Z,101471.50
2017-11-16T03:48:54.460Z,101470.30
2017-11-16T03:49:56.942Z,101473.03
2017-11-16T03:50:59.425Z,101470.87
2017-11-16T03:52:01.888Z,101467.73
2017-11-16T03:53:04.356Z,101462.76
2017-11-16T03:54:06.820Z,101464.16
2017-11-16T03:55:09.279Z,101469.51
2017-11-16T03:56:12.308Z,101466.91
2017-11-16T03:57:14.786Z,101465.69
2017-11-16T03:58:17.266Z,101463.34
2017-11-16T03:59:19.742Z,101466.39
2017-11-16T04:00:22.253Z,101466.03
2017-11-16T04:01:24.738Z,101470.72
2017-11-16T04:02:27.219Z,101470.39
2017-11-16T04:03:29.696Z,101463.97
2017-11-16T04:04:32.186Z,101466.80
2017-11-16T04:05:34.668Z,101463.59
2017-11-16T04:06:37.148Z,101462.36
2017-11-16T04:07:39.626Z,101460.02
2017-11-16T04:08:42.096Z,101460.47
2017-11-16T04:09:44.568Z,101458.64
2017-11-16T04:10:47.059Z,101459.69
2017-11-16T04:11:49.555Z,101455.93
2017-11-16T04:12:52.029Z,101456.35
2017-11-16T04:13:54.488Z,101455.25
2017-11-16T04:14:56.957Z,101454.34
2017-11-16T04:15:59.445Z,101453.09
2017-11-16T04:17:01.967Z,101454.72
2017-11-16T04:18:10.794Z,101454.58
2017-11-16T04:19:13.273Z,101453.88
2017-11-16T04:20:15.754Z,101457.17
2017-11-16T04:21:18.224Z,101456.47
2017-11-16T04:22:20.692Z,101462.22
2017-11-16T04:23:23.180Z,101463.81
2017-11-16T04:24:25.647Z,101463.21
2017-11-16T04:25:28.123Z,101465.79
2017-11-16T04:26:30.587Z,101460.77
2017-11-16T04:27:33.065Z,101455.19
2017-11-16T04:28:35.531Z,101465.53
2017-11-16T04:29:38.005Z,101461.58
2017-11-16T04:30:40.483Z,101461.20
2017-11-16T04:31:42.960Z,101462.45
2017-11-16T04:32:45.442Z,101466.68
2017-11-16T04:33:47.918Z,101463.58
2017-11-16T04:34:50.402Z,101461.84
2017-11-16T04:35:52.906Z,101467.51
2017-11-16T04:36:55.362Z,101467.03
2017-11-16T04:37:57.823Z,101462.88
2017-11-16T04:39:00.296Z,101453.42
2017-11-16T04:40:02.770Z,101463.47
2017-11-16T04:41:05.252Z,101459.90
2017-11-16T04:42:07.722Z,101458.49
2017-11-16T04:43:10.202Z,101453.77
2017-11-16T04:44:12.666Z,101461.85
2017-11-16T04:45:17.157Z,101452.59
2017-11-16T04:46:19.647Z,101447.46
2017-11-16T04:47:22.126Z,101444.42
2017-11-16T04:48:24.757Z,101442.02
2017-11-16T04:49:27.232Z,101435.41
2017-11-16T04:50:29.715Z,101433.28
2017-11-16T04:51:32.209Z,101427.14
2017-11-16T04:52:34.685Z,101422.47
2017-11-16T04:53:37.156Z,101425.52
2017-11-16T04:54:39.642Z,101423.30
2017-11-16T04:55:42.121Z,101420.25
2017-11-16T04:56:44.629Z,101420.13
2017-11-16T04:57:47.105Z,101421.20
2017-11-16T04:58:49.742Z,101419.19
2017-11-16T04:59:52.225Z,101420.02
2017-11-16T05:00:54.729Z,101411.08
2017-11-16T05:01:57.233Z,101417.57
2017-11-16T05:02:59.708Z,101422.92
2017-11-16T05:04:02.172Z,101423.44
2017-11-16T05:05:04.644Z,101419.53
2017-11-16T05:06:07.122Z,101418.98
2017-11-16T05:07:09.630Z,101420.72
2017-11-16T05:08:12.128Z,101417.63
2017-11-16T05:09:14.621Z,101420.36
2017-11-16T05:10:17.094Z,101423.75
2017-11-16T05:11:19.673Z,101425.65
2017-11-16T05:12:22.152Z,101426.52
2017-11-16T05:13:24.611Z,101423.00
2017-11-16T05:14:27.098Z,101424.71
2017-11-16T05:15:29.571Z,101426.14
2017-11-16T05:16:32.047Z,101423.81
2017-11-16T05:17:34.548Z,101424.95
2017-11-16T05:18:37.008Z,101428.08
2017-11-16T05:19:39.487Z,101425.83
2017-11-16T05:20:41.991Z,101430.77
2017-11-16T05:21:44.470Z,101427.30
2017-11-16T05:22:46.991Z,101426.16
2017-11-16T05:23:49.466Z,101428.44
2017-11-16T05:24:51.968Z,101414.68
2017-11-16T05:25:54.466Z,101419.86
2017-11-16T05:26:56.951Z,101423.06
2017-11-16T05:27:59.449Z,101420.41
2017-11-16T05:29:01.925Z,101418.52
2017-11-16T05:30:04.402Z,101413.22
2017-11-16T05:31:06.882Z,101414.17
2017-11-16T05:32:09.635Z,101409.34
2017-11-16T05:33:12.155Z,101416.55
2017-11-16T05:34:14.630Z,101419.34
2017-11-16T05:35:17.120Z,101415.20
2017-11-16T05:36:19.584Z,101419.75
2017-11-16T05:37:22.043Z,101426.82
2017-11-16T05:38:24.528Z,101425.67
2017-11-16T05:39:26.992Z,101429.41
2017-11-16T05:40:29.473Z,101429.38
2017-11-16T05:41:31.967Z,101426.30
2017-11-16T05:42:34.449Z,101429.10
2017-11-16T05:43:36.973Z,101429.69
2017-11-16T05:44:39.446Z,101424.70
2017-11-16T05:45:41.948Z,101434.19
2017-11-16T05:46:44.434Z,101429.11
2017-11-16T05:47:46.895Z,101429.34
2017-11-16T05:48:49.383Z,101432.95
2017-11-16T05:49:51.860Z,101428.96
2017-11-16T05:50:54.337Z,101427.33
2017-11-16T05:51:56.819Z,101431.63
2017-11-16T05:52:59.284Z,101431.03
2017-11-16T05:54:01.791Z,101429.95
2017-11-16T05:55:04.280Z,101429.98
2017-11-16T05:56:06.762Z,101427.82
2017-11-16T05:57:09.238Z,101430.70
2017-11-16T05:58:11.720Z,101424.21
2017-11-16T05:59:14.236Z,101430.09
2017-11-16T06:00:17.267Z,101436.98
2017-11-16T06:01:19.804Z,101446.53
2017-11-16T06:02:22.275Z,101453.65
2017-11-16T06:03:24.758Z,101454.15
2017-11-16T06:04:27.249Z,101450.36
2017-11-16T06:05:29.730Z,101449.61
2017-11-16T06:06:32.201Z,101453.87
2017-11-16T06:07:34.667Z,101450.13
2017-11-16T06:08:37.133Z,101450.19
2017-11-16T06:09:39.609Z,101453.52
2017-11-16T06:10:42.121Z,101449.63
2017-11-16T06:11:44.611Z,101446.39
2017-11-16T06:12:47.112Z,101447.14
2017-11-16T06:13:49.588Z,101442.75
2017-11-16T06:14:52.104Z,101439.69
2017-11-16T06:15:54.581Z,101441.52
2017-11-16T06:16:57.061Z,101436.02
2017-11-16T06:17:59.526Z,101440.22
2017-11-16T06:19:02.002Z,101436.91
2017-11-16T06:20:04.495Z,101433.95
2017-11-16T06:21:07.010Z,101432.70
2017-11-16T06:22:09.487Z,101433.41
2017-11-16T06:23:11.957Z,101431.94
2017-11-16T06:24:14.445Z,101431.97
2017-11-16T06:25:17.054Z,101430.17
2017-11-16T06:26:19.563Z,101436.63
2017-11-16T06:27:22.051Z,101436.45
2017-11-16T06:28:24.530Z,101431.23
2017-11-16T06:29:27.012Z,101429.72
2017-11-16T06:30:29.873Z,101434.90
2017-11-16T06:31:32.332Z,101437.17
2017-11-16T06:32:34.796Z,101432.58
2017-11-16T06:33:37.499Z,101437.51
2017-11-16T06:34:39.983Z,101438.01
2017-11-16T06:35:42.493Z,101446.02
2017-11-16T06:36:44.971Z,101443.76
2017-11-16T06:37:47.455Z,101439.22
2017-11-16T06:38:49.934Z,101446.97
2017-11-16T06:39:52.396Z,101449.49
2017-11-16T06:40:54.927Z,101449.44
2017-11-16T06:41:57.412Z,101452.17
2017-11-16T06:42:59.885Z,101453.41
2017-11-16T06:44:02.357Z,101449.95
2017-11-16T06:45:04.843Z,101451.95
2017-11-16T06:46:07.303Z,101452.08
2017-11-16T06:47:09.806Z,101449.44
2017-11-16T06:48:12.288Z,101451.19
2017-11-16T06:49:14.756Z,101450.83
2017-11-16T06:50:17.233Z,101450.83
2017-11-16T06:51:19.710Z,101452.08
2017-11-16T06:52:22.220Z,101448.69
2017-11-16T06:53:24.710Z,101452.33
2017-11-16T06:54:27.179Z,101452.89
2017-11-16T06:55:30.203Z,101447.37
2017-11-16T06:56:32.681Z,101444.75
2017-11-16T06:57:35.150Z,101439.51
2017-11-16T06:58:37.634Z,101442.55
2017-11-16T06:59:40.189Z,101436.81
2017-11-16T07:00:42.713Z,101444.22
2017-11-16T07:01:45.198Z,101444.34
2017-11-16T07:02:47.699Z,101448.13
2017-11-16T07:03:50.211Z,101447.11
2017-11-16T07:04:52.679Z,101445.12
2017-11-16T07:05:55.177Z,101452.98
2017-11-16T07:06:58.595Z,101458.13
2017-11-16T07:08:01.161Z,101457.06
2017-11-16T07:09:03.640Z,101459.08
2017-11-16T07:10:06.127Z,101466.09
2017-11-16T07:11:08.604Z,101462.14
2017-11-16T07:12:11.068Z,101464.03
2017-11-16T07:13:13.532Z,101461.95
2017-11-16T07:14:16.019Z,101459.60
2017-11-16T07:15:18.483Z,101459.98
2017-11-16T07:16:20.963Z,101462.50
2017-11-16T07:17:23.571Z,101465.28
2017-11-16T07:18:26.036Z,101472.42
2017-11-16T07:19:28.501Z,101471.36
2017-11-16T07:20:31.007Z,101476.34
2017-11-16T07:21:33.458Z,101477.05
2017-11-16T07:22:35.938Z,101485.56
2017-11-16T07:23:38.417Z,101485.33
2017-11-16T07:24:40.880Z,101476.27
2017-11-16T07:25:43.376Z,101477.56
2017-11-16T07:26:45.858Z,101472.95
2017-11-16T07:27:48.314Z,101467.38
2017-11-16T07:28:50.780Z,101462.64
2017-11-16T07:29:53.261Z,101464.71
2017-11-16T07:30:55.728Z,101466.24
2017-11-16T07:31:58.195Z,101463.97
2017-11-16T07:33:00.664Z,101465.78
2017-11-16T07:34:03.154Z,101471.70
2017-11-16T07:35:05.682Z,101469.09
2017-11-16T07:36:08.170Z,101473.63
2017-11-16T07:37:10.652Z,101465.75
2017-11-16T07:38:13.120Z,101475.55
2017-11-16T07:39:15.593Z,101476.78
2017-11-16T07:40:18.081Z,101479.92
2017-11-16T07:41:20.570Z,101479.84
2017-11-16T07:42:23.056Z,101484.66
2017-11-16T07:43:25.561Z,101481.01
2017-11-16T07:44:28.040Z,101480.27
2017-11-16T07:45:30.504Z,101476.72
2017-11-16T07:47:34.757Z,101478.63
2017-11-16T07:48:37.260Z,101472.42
2017-11-16T07:49:39.738Z,101473.73
2017-11-16T07:50:42.213Z,101469.48
2017-11-16T07:51:44.690Z,101468.35
2017-11-16T07:52:47.170Z,101467.16
2017-11-16T07:53:49.646Z,101471.14
2017-11-16T07:54:52.139Z,101473.03
2017-11-16T07:55:54.619Z,101476.89
2017-11-16T07:56:57.084Z,101474.98
2017-11-16T07:57:59.568Z,101477.73
2017-11-16T07:59:02.055Z,101480.34
2017-11-16T08:00:04.523Z,101487.38
2017-11-16T08:01:07.004Z,101482.97
2017-11-16T08:02:09.488Z,101479.66
2017-11-16T08:04:13.734Z,101475.55
2017-11-16T08:05:16.218Z,101475.84
2017-11-16T08:06:18.692Z,101475.59
2017-11-16T08:07:21.171Z,101478.52
2017-11-16T08:08:23.646Z,101473.66
2017-11-16T08:09:26.159Z,101482.45
2017-11-16T08:10:28.662Z,101485.01
2017-11-16T08:11:31.145Z,101484.42
2017-11-16T08:12:33.628Z,101489.64
2017-11-16T08:13:36.110Z,101491.87
2017-11-16T08:14:38.615Z,101495.42
2017-11-16T08:15:41.107Z,101490.24
2017-11-16T08:16:43.591Z,101500.40
2017-11-16T08:17:46.085Z,101495.30
2017-11-16T08:18:48.561Z,101498.50
2017-11-16T08:19:51.064Z,101503.92
2017-11-16T08:20:53.542Z,101499.16
2017-11-16T08:21:56.012Z,101503.03
2017-11-16T08:22:58.476Z,101502.25
2017-11-16T08:24:00.941Z,101503.67
2017-11-16T08:25:03.451Z,101502.16
2017-11-16T08:26:05.962Z,101507.83
2017-11-16T08:27:08.436Z,101509.80
2017-11-16T08:28:10.916Z,101512.34
2017-11-16T08:29:13.379Z,101518.80
2017-11-16T08:30:15.883Z,101516.45
2017-11-16T08:31:18.353Z,101516.05
2017-11-16T08:32:20.848Z,101517.27
2017-11-16T08:33:23.325Z,101515.98
2017-11-16T08:34:25.805Z,101519.77
2017-11-16T08:35:28.295Z,101523.12
2017-11-16T08:36:30.778Z,101525.92
2017-11-16T08:37:33.253Z,101529.26
2017-11-16T08:38:35.727Z,101531.69
2017-11-16T08:39:38.189Z,101533.69
2017-11-16T08:40:40.698Z,101541.11
2017-11-16T08:41:43.160Z,101535.99
2017-11-16T08:42:45.638Z,101542.65
2017-11-16T08:43:48.109Z,101532.84
2017-11-16T08:44:50.579Z,101538.25
2017-11-16T08:45:53.085Z,101535.99
2017-11-16T08:46:55.575Z,101539.06
2017-11-16T08:47:58.041Z,101539.94
2017-11-16T08:49:00.530Z,101538.13
2017-11-16T08:50:02.996Z,101538.30
2017-11-16T08:51:05.508Z,101537.11
2017-11-16T08:52:08.008Z,101533.56
2017-11-16T08:53:10.502Z,101528.86
2017-11-16T08:54:12.971Z,101532.79
2017-11-16T08:55:15.452Z,101532.24
2017-11-16T08:56:17.970Z,101537.98
2017-11-16T08:57:20.469Z,101538.30
2017-11-16T08:58:22.959Z,101538.30
2017-11-16T08:59:25.428Z,101537.37
2017-11-16T09:00:27.901Z,101535.59
2017-11-16T09:01:30.385Z,101536.42
2017-11-16T09:02:32.861Z,101537.33
2017-11-16T09:03:35.334Z,101533.66
2017-11-16T09:04:37.825Z,101534.54
2017-11-16T09:05:40.305Z,101537.63
2017-11-16T09:06:42.798Z,101535.09
2017-11-16T09:07:45.261Z,101534.08
2017-11-16T09:08:47.730Z,101541.44
2017-11-16T09:09:50.222Z,101537.94
2017-11-16T09:10:52.709Z,101540.60
2017-11-16T09:11:55.213Z,101541.28
2017-11-16T09:12:57.707Z,101542.55
2017-11-16T09:14:00.189Z,101541.02
2017-11-16T09:15:02.666Z,101542.45
2017-11-16T09:16:05.146Z,101536.20
2017-11-16T09:17:07.665Z,101534.02
2017-11-16T09:18:10.161Z,101535.91
2017-11-16T09:19:12.648Z,101536.80
2017-11-16T09:20:15.134Z,101534.65
2017-11-16T09:21:17.635Z,101534.00
2017-11-16T09:22:20.139Z,101532.25
2017-11-16T09:23:22.629Z,101531.64
2017-11-16T09:24:25.130Z,101529.53
2017-11-16T09:25:27.614Z,101530.38
2017-11-16T09:26:30.105Z,101527.52
2017-11-16T09:27:32.625Z,101521.02
2017-11-16T09:28:35.094Z,101518.92
2017-11-16T09:29:37.559Z,101515.00
2017-11-16T09:30:40.342Z,101517.77
2017-11-16T09:31:43.051Z,101514.56
2017-11-16T09:32:45.552Z,101510.10
2017-11-16T09:33:48.058Z,101505.23
2017-11-16T09:34:50.553Z,101503.69
2017-11-16T09:35:53.028Z,101504.75
2017-11-16T09:36:55.502Z,101504.31
2017-11-16T09:37:58.023Z,101501.97
2017-11-16T09:39:00.505Z,101499.02
2017-11-16T09:40:03.009Z,101499.22
2017-11-16T09:41:05.494Z,101495.94
2017-11-16T09:42:07.973Z,101495.56
2017-11-16T09:43:10.455Z,101500.57
2017-11-16T09:44:12.960Z,101497.87
2017-11-16T09:45:15.423Z,101493.95
2017-11-16T09:46:17.894Z,101490.70
2017-11-16T09:47:20.374Z,101490.14
2017-11-16T09:48:22.857Z,101498.35
2017-11-16T09:49:25.333Z,101493.72
2017-11-16T09:50:27.813Z,101493.75
2017-11-16T09:51:30.290Z,101497.15
2017-11-16T09:52:32.777Z,101496.41
2017-11-16T09:53:35.264Z,101495.11
2017-11-16T09:54:37.758Z,101491.06
2017-11-16T09:55:40.242Z,101498.58
2017-11-16T09:56:42.722Z,101493.52
2017-11-16T09:57:45.193Z,101496.84
2017-11-16T09:58:47.738Z,101498.02
2017-11-16T09:59:50.212Z,101507.96
2017-11-16T10:00:52.703Z,101499.48
2017-11-16T10:01:55.177Z,101497.31
2017-11-16T10:02:57.649Z,101496.77
2017-11-16T10:04:00.157Z,101495.55
2017-11-16T10:05:02.638Z,101500.11
2017-11-16T10:06:05.146Z,101494.19
2017-11-16T10:07:07.632Z,101482.72
2017-11-16T10:08:10.142Z,101486.91
2017-11-16T10:09:12.640Z,101476.63
2017-11-16T10:10:15.099Z,101486.73
2017-11-16T10:11:17.576Z,101486.45
2017-11-16T10:12:20.064Z,101494.06
2017-11-16T10:13:22.550Z,101485.66
2017-11-16T10:14:25.062Z,101485.38
2017-11-16T10:15:27.532Z,101484.09
2017-11-16T10:16:30.019Z,101480.46
2017-11-16T10:17:32.489Z,101482.13
2017-11-16T10:18:35.014Z,101480.55
2017-11-16T10:19:37.515Z,101476.67
2017-11-16T10:20:39.994Z,101484.45
2017-11-16T10:21:42.461Z,101481.77
2017-11-16T10:22:44.938Z,101476.19
2017-11-16T10:23:47.442Z,101476.20
2017-11-16T10:24:49.950Z,101472.89
2017-11-16T10:25:52.440Z,101471.08
2017-11-16T10:26:54.938Z,101463.45
2017-11-16T10:27:57.433Z,101471.34
2017-11-16T10:28:59.916Z,101468.45
2017-11-16T10:30:02.399Z,101470.16
2017-11-16T10:31:04.883Z,101466.03
2017-11-16T10:32:07.366Z,101463.31
2017-11-16T10:33:09.840Z,101467.84
2017-11-16T10:34:12.317Z,101469.75
2017-11-16T10:35:14.799Z,101460.06
2017-11-16T10:36:17.281Z,101461.27
2017-11-16T10:37:19.773Z,101456.20
2017-11-16T10:38:22.264Z,101454.33
2017-11-16T10:39:24.779Z,101452.45
2017-11-16T10:40:27.288Z,101450.54
2017-11-16T10:41:29.766Z,101445.18
2017-11-16T10:42:32.236Z,101449.38
2017-11-16T10:43:34.705Z,101441.02
2017-11-16T10:44:37.187Z,101439.38
2017-11-16T10:45:39.697Z,101438.47
2017-11-16T10:46:42.190Z,101439.53
2017-11-16T10:47:44.675Z,101435.25
2017-11-16T10:48:47.148Z,101432.92
2017-11-16T10:49:49.616Z,101427.67
2017-11-16T10:50:52.099Z,101434.23
2017-11-16T10:51:54.579Z,101428.22
2017-11-16T10:52:57.063Z,101430.73
2017-11-16T10:53:59.564Z,101430.58
2017-11-16T10:55:02.048Z,101429.14
2017-11-16T10:56:04.543Z,101428.65
2017-11-16T10:57:07.027Z,101430.03
2017-11-16T10:58:09.511Z,101430.21
2017-11-16T10:59:11.988Z,101431.11
2017-11-16T11:00:14.482Z,101433.34
2017-11-16T11:01:16.979Z,101432.57
2017-11-16T11:02:19.477Z,101430.73
2017-11-16T11:03:21.952Z,101437.30
2017-11-16T11:04:24.421Z,101437.84
2017-11-16T11:05:26.897Z,101438.25
2017-11-16T11:06:29.391Z,101443.77
2017-11-16T11:07:31.900Z,101435.00
2017-11-16T11:08:34.408Z,101438.05
2017-11-16T11:09:36.876Z,101445.66
2017-11-16T11:10:39.363Z,101439.31
2017-11-16T11:11:41.827Z,101437.63
2017-11-16T11:12:44.292Z,101443.03
2017-11-16T11:13:46.770Z,101446.16
2017-11-16T11:14:49.279Z,101449.85
2017-11-16T11:15:51.757Z,101448.33
2017-11-16T11:16:54.229Z,101444.96
2017-11-16T11:17:56.688Z,101448.04
2017-11-16T11:18:59.175Z,101454.34
2017-11-16T11:20:01.664Z,101452.61
2017-11-16T11:21:04.132Z,101452.68
2017-11-16T11:22:06.634Z,101446.81
2017-11-16T11:23:09.128Z,101439.70
2017-11-16T11:24:11.618Z,101447.17
2017-11-16T11:25:14.098Z,101449.64
2017-11-16T11:26:16.583Z,101448.77
2017-11-16T11:27:19.095Z,101450.03
2017-11-16T11:28:21.588Z,101448.98
2017-11-16T11:29:24.075Z,101452.02
2017-11-16T11:30:26.547Z,101445.00
2017-11-16T11:31:29.027Z,101451.13
2017-11-16T11:32:31.519Z,101446.70
2017-11-16T11:33:33.988Z,101452.52
2017-11-16T11:34:36.470Z,101444.30
2017-11-16T11:35:38.947Z,101450.14
2017-11-16T11:36:41.429Z,101450.36
2017-11-16T11:37:43.913Z,101439.27
2017-11-16T11:38:46.389Z,101442.97
2017-11-16T11:39:48.875Z,101441.48
2017-11-16T11:40:51.353Z,101445.59
2017-11-16T11:41:53.834Z,101446.39
2017-11-16T11:42:56.303Z,101444.45
2017-11-16T11:43:58.785Z,101447.66
2017-11-16T11:45:01.276Z,101444.41
2017-11-16T11:46:03.767Z,101440.78
2017-11-16T11:47:06.236Z,101440.67
2017-11-16T11:48:08.728Z,101441.33
2017-11-16T11:49:11.213Z,101440.42
2017-11-16T11:50:13.697Z,101446.19
2017-11-16T11:51:16.243Z,101443.86
2017-11-16T11:52:18.715Z,101439.53
2017-11-16T11:53:21.216Z,101436.91
2017-11-16T11:54:23.698Z,101435.81
2017-11-16T11:55:26.177Z,101439.00